Time;durP1;ratioP1;P1;durP2;ratioP2;P2;SDS_P1;SDS_P2;PMS_P1;PMS_P2;Temp;Humidity;BMP_temperature;BMP_pressure;BME280_temperature;BME280_humidity;BME280_pressure;Samples;Min_cycle;Max_cycle;Signal;HPM_P1;HPM_P2
2023/04/06 00:01:10;;;;;;;13.60;12.37;;;1.20;83.20;;;;;;4995691;28;20558;-89
2023/04/06 00:03:36;;;;;;;14.33;13.03;;;1.10;83.20;;;;;;4995615;28;20174;-89
2023/04/06 00:06:01;;;;;;;14.00;11.70;;;1.10;83.30;;;;;;4995506;28;20200;-89
2023/04/06 00:08:27;;;;;;;16.13;12.10;;;1.10;83.40;;;;;;4995820;28;20189;-90
2023/04/06 00:10:52;;;;;;;13.27;11.97;;;1.10;83.30;;;;;;4995439;28;20178;-90
2023/04/06 00:13:18;;;;;;;12.60;11.50;;;1.10;83.30;;;;;;4996697;28;20711;-91
2023/04/06 00:15:44;;;;;;;13.43;12.13;;;1.20;83.30;;;;;;4995541;28;20305;-87
2023/04/06 00:18:09;;;;;;;13.53;12.13;;;1.10;83.20;;;;;;4996640;28;20261;-90
2023/04/06 00:20:35;;;;;;;13.67;12.17;;;1.20;83.10;;;;;;4995180;28;20190;-91
2023/04/06 00:23:00;;;;;;;14.53;11.73;;;1.10;82.90;;;;;;4995304;28;20556;-91
2023/04/06 00:25:26;;;;;;;14.20;12.53;;;1.10;82.70;;;;;;4995301;28;20217;-91
2023/04/06 00:27:52;;;;;;;15.40;13.20;;;1.10;82.80;;;;;;4995341;28;20280;-90
2023/04/06 00:30:18;;;;;;;13.80;12.27;;;1.10;82.70;;;;;;4995206;28;20181;-91
2023/04/06 00:32:44;;;;;;;14.10;12.57;;;1.10;82.70;;;;;;4995380;28;20184;-92
2023/04/06 00:35:10;;;;;;;12.70;11.50;;;1.10;82.70;;;;;;4996394;28;20340;-91
2023/04/06 00:37:35;;;;;;;15.40;12.50;;;1.10;82.50;;;;;;4996437;28;20180;-91
2023/04/06 00:40:01;;;;;;;15.23;11.93;;;1.10;82.40;;;;;;4995470;28;20203;-90
2023/04/06 00:42:27;;;;;;;12.70;11.47;;;1.20;82.20;;;;;;4997380;28;20286;-90
2023/04/06 00:44:55;;;;;;;13.00;11.87;;;1.10;81.90;;;;;;4995895;28;20209;-90
2023/04/06 00:47:21;;;;;;;14.77;11.97;;;1.10;81.70;;;;;;4997067;28;20177;-90
2023/04/06 00:49:47;;;;;;;13.23;11.97;;;1.00;81.70;;;;;;4996289;28;20189;-91
2023/04/06 00:52:13;;;;;;;12.70;11.23;;;1.00;81.60;;;;;;4996863;28;20193;-90
2023/04/06 00:54:39;;;;;;;14.20;12.83;;;1.00;81.50;;;;;;4996430;28;20344;-90
2023/04/06 00:57:05;;;;;;;12.90;11.73;;;1.00;81.30;;;;;;4996586;28;20209;-90
2023/04/06 00:59:31;;;;;;;15.17;13.13;;;0.90;81.20;;;;;;4996285;28;20191;-90
2023/04/06 01:01:57;;;;;;;14.63;13.20;;;0.90;81.10;;;;;;4996059;28;20204;-90
2023/04/06 01:04:22;;;;;;;15.00;13.60;;;0.80;80.90;;;;;;4995929;28;20249;-90
2023/04/06 01:06:49;;;;;;;14.23;12.93;;;0.90;80.90;;;;;;4996255;28;20189;-90
2023/04/06 01:09:16;;;;;;;14.30;13.10;;;0.80;80.80;;;;;;4996062;28;20213;-90
2023/04/06 01:11:41;;;;;;;14.50;13.23;;;0.80;80.80;;;;;;4996182;28;20195;-90
2023/04/06 01:14:07;;;;;;;15.27;13.87;;;0.80;81.10;;;;;;4996526;28;20210;-90
2023/04/06 01:16:33;;;;;;;13.77;12.60;;;0.80;81.50;;;;;;4996277;28;20232;-90
2023/04/06 01:18:59;;;;;;;16.40;14.87;;;0.70;81.70;;;;;;4996458;28;20284;-90
2023/04/06 01:21:25;;;;;;;15.27;13.57;;;0.70;82.00;;;;;;4996984;28;20623;-90
2023/04/06 01:23:51;;;;;;;16.73;15.10;;;0.70;82.30;;;;;;4996772;28;20247;-90
2023/04/06 01:26:16;;;;;;;14.63;13.33;;;0.70;82.40;;;;;;4997767;28;20190;-90
2023/04/06 01:28:44;;;;;;;14.67;12.97;;;0.60;82.60;;;;;;4998077;28;20180;-89
2023/04/06 01:31:10;;;;;;;16.50;14.83;;;0.50;82.70;;;;;;4997001;28;20182;-90
2023/04/06 01:33:35;;;;;;;15.17;13.60;;;0.40;83.00;;;;;;4997211;28;20187;-90
2023/04/06 01:36:01;;;;;;;17.30;14.03;;;0.30;83.20;;;;;;4997112;28;20216;-90
2023/04/06 01:38:27;;;;;;;16.07;14.03;;;0.20;83.40;;;;;;4996848;28;20185;-90
2023/04/06 01:40:56;;;;;;;15.00;13.60;;;0.10;83.90;;;;;;4996317;28;20181;-90
2023/04/06 01:43:22;;;;;;;16.30;14.73;;;0.10;84.20;;;;;;4997632;28;20185;-90
2023/04/06 01:45:48;;;;;;;15.30;13.87;;;0.20;84.30;;;;;;4996765;28;20684;-90
2023/04/06 01:48:14;;;;;;;17.30;14.63;;;0.20;84.30;;;;;;4996743;28;20228;-90
2023/04/06 01:50:39;;;;;;;14.87;13.37;;;0.20;84.30;;;;;;4997243;28;20561;-90
2023/04/06 01:53:05;;;;;;;15.40;13.87;;;0.30;84.30;;;;;;4996973;28;20182;-90
2023/04/06 01:55:31;;;;;;;15.83;14.40;;;0.30;84.10;;;;;;4997369;28;20218;-90
2023/04/06 01:57:56;;;;;;;13.93;12.63;;;0.10;84.20;;;;;;4996834;28;20188;-90
2023/04/06 02:00:22;;;;;;;15.53;13.83;;;0.10;84.30;;;;;;4997078;28;20174;-90
2023/04/06 02:02:48;;;;;;;14.37;13.10;;;0.10;84.40;;;;;;4997832;28;20250;-90
2023/04/06 02:05:13;;;;;;;14.27;12.87;;;0.20;84.40;;;;;;4996304;28;20204;-90
2023/04/06 02:07:39;;;;;;;14.73;13.13;;;0.10;84.30;;;;;;4996193;28;20277;-90
2023/04/06 02:10:12;;;;;;;13.80;12.47;;;0.10;84.20;;;;;;4996474;28;20200;-90
2023/04/06 02:12:38;;;;;;;14.53;13.03;;;0.10;84.10;;;;;;4997049;28;20637;-90
2023/04/06 02:15:04;;;;;;;15.73;13.07;;;0.10;83.90;;;;;;4996360;28;20201;-90
2023/04/06 02:17:30;;;;;;;14.40;13.00;;;0.10;84.00;;;;;;4998041;28;20185;-90
2023/04/06 02:19:55;;;;;;;14.43;13.03;;;0.10;84.00;;;;;;4996851;28;20295;-90
2023/04/06 02:22:21;;;;;;;14.47;12.93;;;0.10;84.10;;;;;;4997445;28;20663;-90
2023/04/06 02:24:46;;;;;;;15.20;13.60;;;0.10;83.90;;;;;;4998962;28;20201;-90
2023/04/06 02:27:13;;;;;;;14.93;13.43;;;0.00;84.00;;;;;;4999856;28;20189;-90
2023/04/06 02:29:39;;;;;;;15.33;13.20;;;0.00;84.10;;;;;;5000033;28;20188;-90
2023/04/06 02:32:05;;;;;;;15.97;14.40;;;0.00;84.10;;;;;;4999528;28;20212;-90
2023/04/06 02:34:31;;;;;;;15.03;13.53;;;0.10;84.20;;;;;;4999568;28;20211;-90
2023/04/06 02:36:56;;;;;;;19.33;13.20;;;0.00;84.10;;;;;;4999512;28;20209;-90
2023/04/06 02:39:22;;;;;;;15.37;13.77;;;0.00;84.10;;;;;;5000008;28;20256;-90
2023/04/06 02:41:48;;;;;;;13.87;12.23;;;0.00;84.20;;;;;;4999497;28;20188;-90
2023/04/06 02:44:13;;;;;;;14.93;13.40;;;-0.10;84.30;;;;;;4999403;28;20236;-90
2023/04/06 02:46:39;;;;;;;14.47;12.97;;;-0.10;84.50;;;;;;4998974;28;20184;-90
2023/04/06 02:49:05;;;;;;;15.43;13.83;;;-0.20;84.70;;;;;;4999299;28;20185;-90
2023/04/06 02:51:31;;;;;;;21.87;14.57;;;-0.20;84.70;;;;;;4999588;28;20186;-90
2023/04/06 02:53:56;;;;;;;14.43;12.90;;;-0.20;84.80;;;;;;5000406;28;20179;-90
2023/04/06 02:56:22;;;;;;;15.43;12.87;;;-0.20;85.00;;;;;;4999313;28;20217;-90
2023/04/06 02:58:48;;;;;;;15.30;12.23;;;-0.20;85.00;;;;;;4999152;28;20176;-89
2023/04/06 03:01:13;;;;;;;20.13;13.87;;;-0.30;84.90;;;;;;4999705;28;20210;-90
2023/04/06 03:03:39;;;;;;;15.37;13.23;;;-0.40;84.90;;;;;;4999110;28;20186;-90
2023/04/06 03:06:05;;;;;;;14.50;13.00;;;-0.40;85.10;;;;;;5000597;28;20204;-90
2023/04/06 03:08:31;;;;;;;19.63;14.10;;;-0.40;85.30;;;;;;4998885;28;20270;-90
2023/04/06 03:10:56;;;;;;;15.37;13.83;;;-0.40;85.20;;;;;;4998516;28;20278;-90
2023/04/06 03:13:22;;;;;;;17.27;13.60;;;-0.40;85.40;;;;;;4996682;28;20756;-88
2023/04/06 03:15:47;;;;;;;14.17;12.70;;;-0.30;85.40;;;;;;4997379;28;20706;-90
2023/04/06 03:18:13;;;;;;;15.47;13.10;;;-0.50;85.20;;;;;;4999440;28;20183;-90
2023/04/06 03:20:39;;;;;;;15.97;13.03;;;-0.50;85.20;;;;;;4999780;28;20222;-90
2023/04/06 03:23:04;;;;;;;16.60;13.37;;;-0.60;85.30;;;;;;4999479;28;20181;-90
2023/04/06 03:25:30;;;;;;;14.20;12.90;;;-0.60;85.50;;;;;;4999181;28;20242;-90
2023/04/06 03:27:56;;;;;;;16.03;13.50;;;-0.70;85.60;;;;;;4998235;28;20202;-90
2023/04/06 03:30:22;;;;;;;15.73;13.37;;;-0.70;85.90;;;;;;4998752;28;20284;-90
2023/04/06 03:32:47;;;;;;;15.83;13.63;;;-0.70;86.00;;;;;;4998614;28;20191;-90
2023/04/06 03:35:13;;;;;;;15.60;13.27;;;-0.60;86.00;;;;;;4998350;28;20347;-90
2023/04/06 03:37:38;;;;;;;20.73;14.53;;;-0.60;86.10;;;;;;4998599;28;20174;-90
2023/04/06 03:40:05;;;;;;;20.53;14.13;;;-0.60;85.90;;;;;;4999128;28;20202;-90
2023/04/06 03:42:32;;;;;;;16.37;14.67;;;-0.70;85.80;;;;;;4999133;28;20181;-90
2023/04/06 03:44:58;;;;;;;19.43;13.40;;;-0.80;85.80;;;;;;4998539;28;20275;-90
2023/04/06 03:47:24;;;;;;;16.70;13.13;;;-0.80;86.00;;;;;;4998663;28;20176;-90
2023/04/06 03:49:49;;;;;;;18.47;12.13;;;-0.90;86.00;;;;;;4998512;28;20211;-89
2023/04/06 03:52:15;;;;;;;14.87;12.87;;;-1.00;86.10;;;;;;4998094;28;20178;-89
2023/04/06 03:54:41;;;;;;;15.47;13.67;;;-1.00;86.20;;;;;;4999104;28;20205;-89
2023/04/06 03:57:06;;;;;;;14.40;12.97;;;-1.10;86.40;;;;;;4998073;28;20261;-90
2023/04/06 03:59:32;;;;;;;16.03;13.77;;;-1.10;86.40;;;;;;4997821;28;20654;-90
2023/04/06 04:01:57;;;;;;;15.73;12.70;;;-1.10;86.50;;;;;;4997990;28;20184;-90
2023/04/06 04:04:23;;;;;;;14.40;12.70;;;-1.10;86.60;;;;;;4997222;28;20773;-90
2023/04/06 04:06:49;;;;;;;15.10;12.47;;;-1.20;86.60;;;;;;4996844;28;20188;-89
2023/04/06 04:09:14;;;;;;;13.95;12.50;;;-1.20;86.70;;;;;;4996408;28;20199;-90
2023/04/06 04:11:40;;;;;;;14.07;12.53;;;-1.20;86.90;;;;;;4996066;28;20202;-90
2023/04/06 04:14:06;;;;;;;13.70;12.30;;;-1.20;86.90;;;;;;4995992;28;20178;-90
2023/04/06 04:16:31;;;;;;;24.60;12.80;;;-1.30;87.00;;;;;;4999145;28;20211;-90
2023/04/06 04:18:58;;;;;;;14.90;12.23;;;-1.30;87.00;;;;;;4999569;28;20585;-90
2023/04/06 04:21:25;;;;;;;17.50;13.00;;;-1.30;87.00;;;;;;4999871;28;20174;-90
2023/04/06 04:23:52;;;;;;;17.00;12.37;;;-1.40;86.90;;;;;;5000105;28;20648;-89
2023/04/06 04:26:18;;;;;;;18.40;12.30;;;-1.40;87.10;;;;;;5001471;28;20177;-90
2023/04/06 04:28:43;;;;;;;17.03;13.23;;;-1.40;87.00;;;;;;4999771;28;20178;-90
2023/04/06 04:31:09;;;;;;;20.57;12.90;;;-1.40;87.10;;;;;;5000367;28;20185;-89
2023/04/06 04:33:35;;;;;;;29.80;13.40;;;-1.40;87.20;;;;;;4999309;28;20199;-89
2023/04/06 04:36:00;;;;;;;20.10;13.97;;;-1.30;87.30;;;;;;4999778;28;20209;-90
2023/04/06 04:38:26;;;;;;;14.57;12.27;;;-1.30;87.30;;;;;;5000271;28;20171;-88
2023/04/06 04:40:51;;;;;;;18.37;12.43;;;-1.40;87.40;;;;;;5000825;28;20173;-89
2023/04/06 04:43:17;;;;;;;24.10;13.27;;;-1.30;87.50;;;;;;4999398;28;20193;-90
2023/04/06 04:45:42;;;;;;;13.37;11.97;;;-1.30;87.70;;;;;;4998973;28;20201;-89
2023/04/06 04:48:08;;;;;;;25.20;12.17;;;-1.30;87.60;;;;;;4999028;28;20209;-90
2023/04/06 04:50:34;;;;;;;19.77;12.43;;;-1.30;87.60;;;;;;4999646;28;20607;-90
2023/04/06 04:52:59;;;;;;;18.27;12.20;;;-1.40;87.60;;;;;;5000740;28;20188;-90
2023/04/06 04:55:25;;;;;;;15.47;11.83;;;-1.40;87.60;;;;;;5000668;28;20249;-90
2023/04/06 04:57:51;;;;;;;14.80;12.53;;;-1.30;87.70;;;;;;5001457;28;20301;-90
2023/04/06 05:00:18;;;;;;;16.53;12.87;;;-1.20;87.80;;;;;;4999504;28;20178;-90
2023/04/06 05:02:44;;;;;;;19.50;12.73;;;-1.10;88.00;;;;;;5002098;28;20174;-90
2023/04/06 05:05:09;;;;;;;15.20;12.27;;;-0.90;88.10;;;;;;5000540;28;20200;-90
2023/04/06 05:07:35;;;;;;;19.33;14.00;;;-0.90;88.00;;;;;;5000759;28;20261;-89
2023/04/06 05:10:01;;;;;;;23.27;12.53;;;-0.90;87.90;;;;;;5000722;28;20198;-90
2023/04/06 05:12:29;;;;;;;17.87;11.73;;;-0.90;87.80;;;;;;5001309;28;20184;-89
2023/04/06 05:14:55;;;;;;;15.33;11.57;;;-0.90;87.80;;;;;;5001906;28;20194;-90
2023/04/06 05:17:20;;;;;;;13.90;11.13;;;-0.90;87.80;;;;;;5003693;28;20212;-90
2023/04/06 05:19:46;;;;;;;22.73;11.67;;;-1.00;87.80;;;;;;5001887;28;20201;-90
2023/04/06 05:22:14;;;;;;;16.87;11.57;;;-1.00;87.80;;;;;;5002570;28;20191;-90
2023/04/06 05:24:40;;;;;;;14.47;11.53;;;-1.00;87.90;;;;;;5004194;28;20649;-90
2023/04/06 05:27:05;;;;;;;15.77;11.43;;;-0.90;88.00;;;;;;5001347;28;20181;-89
2023/04/06 05:29:31;;;;;;;14.80;12.13;;;-0.90;88.10;;;;;;5002203;28;20209;-90
2023/04/06 05:31:56;;;;;;;14.87;11.63;;;-0.80;88.10;;;;;;5005128;28;20190;-90
2023/04/06 05:34:22;;;;;;;15.97;11.93;;;-0.80;88.20;;;;;;5008311;28;20201;-90
2023/04/06 05:36:48;;;;;;;15.70;11.53;;;-0.70;88.30;;;;;;5011438;28;20222;-90
2023/04/06 05:39:13;;;;;;;21.83;14.43;;;-0.60;88.40;;;;;;5011963;28;20174;-90
2023/04/06 05:41:39;;;;;;;16.53;13.33;;;-0.60;88.50;;;;;;5012185;28;20178;-90
2023/04/06 05:44:05;;;;;;;21.33;13.73;;;-0.50;88.70;;;;;;5013883;28;20184;-90
2023/04/06 05:46:30;;;;;;;20.00;14.07;;;-0.40;88.80;;;;;;5013871;28;20181;-90
2023/04/06 05:48:57;;;;;;;27.13;13.97;;;-0.30;88.90;;;;;;5011681;28;20206;-90
2023/04/06 05:51:23;;;;;;;18.43;13.97;;;-0.20;89.00;;;;;;5009789;28;20238;-90
2023/04/06 05:53:48;;;;;;;18.30;14.60;;;-0.10;89.00;;;;;;5008710;28;20178;-90
2023/04/06 05:56:14;;;;;;;21.70;13.73;;;0.00;89.10;;;;;;5008291;28;20288;-90
2023/04/06 05:58:40;;;;;;;21.93;14.30;;;0.00;89.10;;;;;;5007797;28;20184;-90
2023/04/06 06:01:06;;;;;;;20.57;13.87;;;0.10;89.20;;;;;;5006833;28;20181;-90
2023/04/06 06:03:31;;;;;;;19.77;14.13;;;0.20;89.30;;;;;;5004252;28;20185;-90
2023/04/06 06:06:04;;;;;;;30.47;17.67;;;0.30;89.40;;;;;;5002510;28;20202;-89
2023/04/06 06:08:30;;;;;;;20.90;13.63;;;0.40;89.40;;;;;;4999348;28;20157;-89
2023/04/06 06:10:56;;;;;;;24.70;15.00;;;0.50;89.50;;;;;;4996615;28;20326;-88
2023/04/06 06:13:23;;;;;;;22.40;15.50;;;0.60;89.50;;;;;;4995024;28;20187;-91
2023/04/06 06:15:49;;;;;;;17.83;15.37;;;0.70;89.50;;;;;;5000407;28;20282;-90
2023/04/06 06:18:15;;;;;;;20.03;16.23;;;0.80;89.60;;;;;;4998288;28;20182;-90
2023/04/06 06:20:40;;;;;;;18.47;15.07;;;0.90;89.60;;;;;;4996376;28;20284;-90
2023/04/06 06:23:06;;;;;;;18.43;15.93;;;1.00;89.60;;;;;;4999954;28;20189;-90
2023/04/06 06:25:32;;;;;;;20.67;16.00;;;1.10;89.60;;;;;;5002964;28;20213;-90
2023/04/06 06:27:58;;;;;;;20.67;17.73;;;1.20;89.60;;;;;;4998343;28;20185;-90
2023/04/06 06:30:24;;;;;;;21.37;17.53;;;1.30;89.60;;;;;;4997307;28;20186;-90
2023/04/06 06:32:50;;;;;;;25.80;18.13;;;1.40;89.60;;;;;;5000219;28;20192;-90
2023/04/06 06:35:16;;;;;;;30.03;18.10;;;1.50;89.60;;;;;;4995234;28;20702;-91
2023/04/06 06:37:42;;;;;;;19.27;17.17;;;1.60;89.60;;;;;;4993590;28;20169;-91
2023/04/06 06:40:10;;;;;;;27.03;17.87;;;1.80;89.70;;;;;;4993366;28;20636;-91
2023/04/06 06:42:35;;;;;;;28.23;18.13;;;1.90;89.60;;;;;;4993360;28;20264;-90
2023/04/06 06:45:01;;;;;;;21.17;16.80;;;2.00;89.60;;;;;;4994205;28;20679;-90
2023/04/06 06:47:27;;;;;;;22.33;18.13;;;2.20;89.50;;;;;;4992858;28;20182;-90
2023/04/06 06:49:52;;;;;;;21.37;17.00;;;2.30;89.10;;;;;;4993927;28;20178;-90
2023/04/06 06:52:18;;;;;;;24.73;17.10;;;2.40;88.60;;;;;;4992735;28;20188;-90
2023/04/06 06:54:44;;;;;;;37.43;18.03;;;2.50;88.00;;;;;;4992622;28;20202;-90
2023/04/06 06:57:09;;;;;;;23.03;16.10;;;2.70;87.60;;;;;;4992708;28;20260;-90
2023/04/06 06:59:35;;;;;;;18.57;15.97;;;2.80;87.10;;;;;;4993684;28;20170;-90
2023/04/06 07:02:01;;;;;;;20.67;16.90;;;3.00;86.70;;;;;;4992645;28;20576;-90
2023/04/06 07:04:26;;;;;;;22.70;16.53;;;3.10;86.30;;;;;;4993770;28;20205;-90
2023/04/06 07:06:52;;;;;;;24.23;17.17;;;3.30;86.10;;;;;;4992618;28;20178;-90
2023/04/06 07:09:18;;;;;;;24.83;17.00;;;3.40;85.80;;;;;;4992568;28;20177;-89
2023/04/06 07:11:44;;;;;;;28.20;17.63;;;3.60;85.50;;;;;;4992555;28;20209;-90
2023/04/06 07:14:11;;;;;;;19.13;15.60;;;3.70;85.00;;;;;;4992589;28;20201;-90
2023/04/06 07:16:37;;;;;;;18.80;16.13;;;3.80;84.80;;;;;;4993670;28;20196;-90
2023/04/06 07:19:02;;;;;;;18.03;16.23;;;4.00;84.00;;;;;;4993485;28;20182;-90
2023/04/06 07:21:28;;;;;;;18.70;16.17;;;4.20;83.00;;;;;;4992540;28;20179;-90
2023/04/06 07:23:54;;;;;;;20.43;16.20;;;4.30;82.20;;;;;;4993518;28;20179;-90
2023/04/06 07:26:19;;;;;;;19.43;15.30;;;4.50;81.20;;;;;;4993970;28;20521;-90
2023/04/06 07:28:45;;;;;;;17.63;15.90;;;4.70;80.20;;;;;;4992296;28;20680;-90
2023/04/06 07:31:11;;;;;;;16.70;14.67;;;4.80;79.70;;;;;;4993789;28;20220;-90
2023/04/06 07:33:36;;;;;;;17.13;15.33;;;5.00;78.80;;;;;;4992449;28;20182;-90
2023/04/06 07:36:02;;;;;;;17.53;15.17;;;5.10;78.50;;;;;;4992088;28;20215;-90
2023/04/06 07:38:28;;;;;;;16.87;15.13;;;5.30;77.90;;;;;;4992393;28;20173;-89
2023/04/06 07:40:53;;;;;;;16.50;15.00;;;5.40;77.20;;;;;;4992277;28;20269;-90
2023/04/06 07:43:19;;;;;;;17.43;14.23;;;5.60;76.80;;;;;;4993766;28;20171;-90
2023/04/06 07:45:45;;;;;;;16.83;15.17;;;5.70;76.30;;;;;;4993624;28;20341;-90
2023/04/06 07:48:10;;;;;;;17.83;16.13;;;5.90;74.60;;;;;;4992811;28;20181;-90
2023/04/06 07:50:36;;;;;;;18.77;16.80;;;6.10;73.40;;;;;;4996084;28;20181;-90
2023/04/06 07:53:02;;;;;;;20.43;18.33;;;6.30;71.60;;;;;;4997609;28;20177;-90
2023/04/06 07:55:28;;;;;;;27.70;18.30;;;6.50;71.20;;;;;;4995848;28;20209;-90
2023/04/06 07:57:53;;;;;;;21.30;19.17;;;6.50;70.80;;;;;;4996065;28;20178;-90
2023/04/06 08:00:19;;;;;;;20.67;18.63;;;6.60;70.00;;;;;;4995983;28;20530;-90
2023/04/06 08:02:45;;;;;;;20.27;18.37;;;6.80;70.40;;;;;;4997443;28;20170;-90
2023/04/06 08:05:11;;;;;;;20.63;18.60;;;6.90;68.60;;;;;;4998011;28;20226;-90
2023/04/06 08:07:36;;;;;;;22.37;19.87;;;7.00;66.10;;;;;;4997871;28;20594;-90
2023/04/06 08:10:03;;;;;;;22.70;19.10;;;7.10;64.90;;;;;;4997962;28;20193;-90
2023/04/06 08:12:29;;;;;;;20.43;18.63;;;7.00;66.40;;;;;;4997007;28;20260;-90
2023/04/06 08:14:54;;;;;;;21.33;19.37;;;6.90;67.00;;;;;;4996084;28;20248;-90
2023/04/06 08:17:20;;;;;;;21.40;19.67;;;6.80;64.00;;;;;;4995888;28;20688;-90
2023/04/06 08:19:45;;;;;;;21.33;19.37;;;6.80;64.80;;;;;;4997036;28;20324;-88
2023/04/06 08:22:11;;;;;;;21.03;18.97;;;6.80;65.00;;;;;;4997889;28;20177;-90
2023/04/06 08:24:37;;;;;;;21.23;19.30;;;6.90;63.50;;;;;;4997690;28;20552;-90
2023/04/06 08:27:03;;;;;;;16.47;15.17;;;7.10;63.60;;;;;;4998180;28;20174;-90
2023/04/06 08:29:28;;;;;;;20.13;18.23;;;7.10;61.40;;;;;;4998486;28;20185;-90
2023/04/06 08:31:54;;;;;;;19.97;18.03;;;7.20;59.70;;;;;;4998511;28;20233;-91
2023/04/06 08:34:21;;;;;;;20.30;18.47;;;7.30;59.70;;;;;;4997696;28;20217;-89
2023/04/06 08:36:46;;;;;;;20.17;18.27;;;7.50;59.20;;;;;;4996638;28;20214;-91
2023/04/06 08:39:12;;;;;;;19.63;17.90;;;7.70;58.10;;;;;;4995435;28;20186;-90
2023/04/06 08:41:38;;;;;;;19.33;17.47;;;7.80;54.40;;;;;;4997925;28;20174;-90
2023/04/06 08:44:04;;;;;;;18.67;17.10;;;7.90;54.90;;;;;;4998469;28;20674;-90
2023/04/06 08:46:30;;;;;;;18.47;16.90;;;7.90;54.50;;;;;;4998245;28;20204;-90
2023/04/06 08:48:57;;;;;;;17.60;16.10;;;8.00;55.40;;;;;;4995651;28;20186;-90
2023/04/06 08:51:27;;;;;;;19.40;17.70;;;8.20;52.20;;;;;;4996530;28;20170;-90
2023/04/06 08:53:55;;;;;;;19.43;17.50;;;8.30;51.90;;;;;;4995041;28;20178;-90
2023/04/06 08:56:22;;;;;;;19.60;17.83;;;8.50;52.40;;;;;;4995364;28;20210;-91
2023/04/06 08:58:49;;;;;;;19.30;17.33;;;8.70;51.30;;;;;;4995470;28;20216;-91
2023/04/06 09:01:18;;;;;;;19.60;17.77;;;8.70;51.30;;;;;;5009859;28;20182;-92
2023/04/06 09:03:46;;;;;;;19.63;17.70;;;8.70;51.20;;;;;;5000371;28;20189;-91
2023/04/06 09:06:16;;;;;;;18.33;17.03;;;8.90;49.70;;;;;;5004495;28;20195;-92
2023/04/06 09:08:42;;;;;;;19.63;18.03;;;9.00;49.70;;;;;;5013764;28;20182;-93
2023/04/06 09:11:08;;;;;;;19.13;17.60;;;9.00;51.10;;;;;;5011575;28;20252;-92
2023/04/06 09:13:49;;;;;;;20.53;18.93;;;9.20;51.30;;;;;;5002502;28;20178;-92
2023/04/06 09:16:15;;;;;;;19.93;18.17;;;9.30;48.80;;;;;;4998029;28;20205;-90
2023/04/06 09:18:41;;;;;;;19.87;18.13;;;9.30;51.20;;;;;;5001221;28;20198;-92
2023/04/06 09:21:08;;;;;;;19.93;18.03;;;9.30;49.20;;;;;;5010380;28;20194;-91
2023/04/06 09:23:34;;;;;;;20.33;18.63;;;9.40;49.10;;;;;;5010831;28;20197;-93
2023/04/06 09:26:07;;;;;;;20.93;19.13;;;9.40;48.40;;;;;;5004391;28;20210;-92
2023/04/06 09:29:09;;;;;;;20.10;18.40;;;9.70;49.40;;;;;;4999579;28;20189;-90
2023/04/06 09:31:35;;;;;;;20.63;18.80;;;9.70;48.40;;;;;;4991707;28;20247;-92
2023/04/06 09:34:01;;;;;;;21.23;19.20;;;9.80;46.90;;;;;;4994484;28;20190;-90
2023/04/06 09:36:35;;;;;;;21.43;19.27;;;9.90;48.90;;;;;;4994187;28;20202;-90
2023/04/06 09:39:04;;;;;;;20.50;18.70;;;10.00;48.30;;;;;;4995951;28;20165;-91
2023/04/06 09:41:32;;;;;;;20.80;19.07;;;10.00;48.20;;;;;;4995605;28;20178;-92
2023/04/06 09:44:07;;;;;;;20.87;19.23;;;10.00;49.60;;;;;;4995845;28;20177;-91
2023/04/06 09:46:40;;;;;;;21.07;19.17;;;10.10;47.40;;;;;;4999775;28;20204;-92
2023/04/06 09:49:08;;;;;;;20.33;18.47;;;10.20;47.80;;;;;;5004598;28;20245;-92
2023/04/06 09:51:38;;;;;;;21.37;19.43;;;10.30;48.80;;;;;;4998834;28;20268;-91
2023/04/06 09:54:05;;;;;;;24.67;20.47;;;10.40;48.90;;;;;;4997876;28;20205;-91
2023/04/06 09:56:47;;;;;;;21.07;19.07;;;10.20;47.80;;;;;;4996051;28;20240;-91
2023/04/06 09:59:51;;;;;;;19.70;18.30;;;10.30;46.80;;;;;;5001609;28;20167;-92
2023/04/06 10:02:35;;;;;;;21.23;19.10;;;10.40;48.20;;;;;;4999317;28;20205;-92
2023/04/06 10:05:39;;;;;;;21.37;19.47;;;10.70;48.80;;;;;;5002059;28;20205;-91
2023/04/06 10:08:12;;;;;;;22.97;20.80;;;10.70;45.60;;;;;;4968166;28;20217;-91
2023/04/06 10:10:38;;;;;;;23.00;21.00;;;10.80;46.90;;;;;;4994117;28;20180;-91
2023/04/06 10:13:04;;;;;;;21.27;19.43;;;10.60;48.50;;;;;;4996238;28;20205;-91
2023/04/06 10:15:30;;;;;;;21.93;19.73;;;10.80;46.60;;;;;;4995801;28;20198;-91
2023/04/06 10:18:00;;;;;;;19.97;18.30;;;10.80;47.60;;;;;;5004620;28;20684;-90
2023/04/06 10:20:38;;;;;;;20.77;18.87;;;10.80;45.90;;;;;;5001131;28;20205;-91
2023/04/06 10:23:15;;;;;;;21.00;19.10;;;10.90;47.10;;;;;;5003474;28;20185;-91
2023/04/06 10:25:55;;;;;;;22.17;20.10;;;11.10;44.90;;;;;;5000232;28;20691;-88
2023/04/06 10:28:20;;;;;;;25.07;22.60;;;11.30;46.40;;;;;;4994488;28;20247;-90
2023/04/06 10:30:46;;;;;;;20.87;19.07;;;11.30;45.60;;;;;;5002582;28;20178;-90
2023/04/06 10:33:16;;;;;;;20.20;18.57;;;11.50;43.70;;;;;;5004909;28;20181;-90
2023/04/06 10:35:42;;;;;;;22.03;20.17;;;11.60;44.00;;;;;;5008500;28;20309;-90
2023/04/06 10:38:08;;;;;;;21.00;19.40;;;11.60;44.60;;;;;;5004175;28;20671;-90
2023/04/06 10:40:38;;;;;;;21.50;19.33;;;11.50;44.60;;;;;;5000367;28;20217;-90
2023/04/06 10:43:12;;;;;;;21.23;19.57;;;11.60;46.40;;;;;;5009094;28;20174;-90
2023/04/06 10:45:39;;;;;;;20.47;18.80;;;11.70;42.60;;;;;;5006469;28;20194;-89
2023/04/06 10:48:18;;;;;;;21.13;19.43;;;11.80;42.20;;;;;;5007712;28;20185;-90
2023/04/06 10:50:47;;;;;;;20.37;18.77;;;12.00;43.50;;;;;;4999352;28;20194;-90
2023/04/06 10:53:24;;;;;;;20.27;18.60;;;12.10;43.00;;;;;;4995652;28;20656;-90
2023/04/06 10:55:54;;;;;;;20.67;18.90;;;12.00;42.90;;;;;;4999316;28;20256;-91
2023/04/06 10:58:20;;;;;;;20.93;19.40;;;12.00;43.00;;;;;;4999680;28;20182;-89
2023/04/06 11:00:47;;;;;;;20.57;19.00;;;12.00;41.50;;;;;;5011886;28;20240;-90
2023/04/06 11:03:13;;;;;;;22.03;20.07;;;12.20;42.20;;;;;;5007150;28;20270;-90
2023/04/06 11:05:42;;;;;;;21.33;19.63;;;12.20;42.80;;;;;;4998760;28;20221;-90
2023/04/06 11:08:08;;;;;;;21.27;19.67;;;12.30;42.20;;;;;;4999118;28;20178;-89
2023/04/06 11:10:36;;;;;;;21.07;19.47;;;12.10;41.70;;;;;;5000364;28;20178;-91
2023/04/06 11:13:02;;;;;;;20.53;18.93;;;12.40;42.60;;;;;;5013030;28;20190;-93
2023/04/06 11:15:34;;;;;;;21.37;19.47;;;12.40;43.50;;;;;;5014813;28;20213;-91
2023/04/06 11:18:03;;;;;;;22.40;20.43;;;12.60;41.80;;;;;;5009819;28;20159;-90
2023/04/06 11:20:29;;;;;;;21.50;19.80;;;12.80;43.00;;;;;;5006341;28;20193;-92
2023/04/06 11:22:55;;;;;;;22.80;20.57;;;12.70;40.70;;;;;;5006992;28;20181;-92
2023/04/06 11:25:20;;;;;;;22.93;20.93;;;12.30;42.30;;;;;;5012506;28;20197;-91
2023/04/06 11:27:47;;;;;;;22.37;20.47;;;12.40;40.50;;;;;;5014771;28;20262;-91
2023/04/06 11:30:14;;;;;;;22.97;20.77;;;12.70;39.00;;;;;;5012715;28;20184;-92
2023/04/06 11:32:44;;;;;;;22.10;20.13;;;12.70;40.00;;;;;;5013188;28;20174;-91
2023/04/06 11:35:21;;;;;;;22.13;20.33;;;12.90;41.90;;;;;;5012681;28;20194;-91
2023/04/06 11:37:48;;;;;;;21.77;20.07;;;13.10;41.10;;;;;;5015202;28;20170;-91
2023/04/06 11:40:14;;;;;;;21.70;19.97;;;13.00;39.20;;;;;;5013660;28;20165;-91
2023/04/06 11:42:39;;;;;;;22.13;20.40;;;13.00;38.20;;;;;;5015535;28;20217;-91
2023/04/06 11:45:08;;;;;;;24.80;22.80;;;12.80;40.10;;;;;;5011583;28;20205;-91
2023/04/06 11:47:35;;;;;;;25.10;22.90;;;12.80;38.30;;;;;;5015313;28;20178;-92
2023/04/06 11:50:09;;;;;;;24.63;22.43;;;13.00;40.10;;;;;;5007708;28;20547;-92
2023/04/06 11:52:35;;;;;;;25.13;23.13;;;13.00;40.20;;;;;;5005476;28;20178;-91
2023/04/06 11:55:13;;;;;;;24.13;22.03;;;12.40;39.30;;;;;;5005847;28;20198;-91
2023/04/06 11:57:39;;;;;;;24.53;22.57;;;12.90;40.50;;;;;;5013735;28;20248;-91
2023/04/06 12:00:06;;;;;;;26.90;24.53;;;13.30;41.40;;;;;;5011108;28;20185;-91
2023/04/06 12:02:32;;;;;;;27.30;25.00;;;13.20;39.30;;;;;;5012102;28;20185;-91
2023/04/06 12:04:58;;;;;;;26.20;23.93;;;13.20;41.00;;;;;;5009520;28;20228;-89
2023/04/06 12:07:23;;;;;;;30.37;27.40;;;12.90;39.30;;;;;;5005928;28;20182;-92
2023/04/06 12:09:49;;;;;;;26.23;24.03;;;13.20;37.70;;;;;;5005109;28;20185;-92
2023/04/06 12:12:15;;;;;;;27.17;24.67;;;13.20;39.30;;;;;;5003026;28;20185;-92
2023/04/06 12:14:40;;;;;;;22.47;20.57;;;13.30;39.60;;;;;;5006935;28;20208;-91
2023/04/06 12:17:06;;;;;;;25.70;23.60;;;13.00;39.60;;;;;;5008461;28;20206;-91
2023/04/06 12:19:31;;;;;;;26.97;24.73;;;12.80;39.70;;;;;;5010239;28;20204;-91
2023/04/06 12:21:57;;;;;;;27.03;24.63;;;12.80;40.30;;;;;;5015795;28;20185;-91
2023/04/06 12:24:23;;;;;;;26.73;24.27;;;13.00;39.00;;;;;;5008285;28;20228;-91
2023/04/06 12:26:49;;;;;;;27.20;24.53;;;13.10;39.50;;;;;;5010471;28;20185;-91
2023/04/06 12:29:15;;;;;;;29.60;26.70;;;13.10;39.70;;;;;;5015169;28;20179;-91
2023/04/06 12:31:42;;;;;;;28.90;25.70;;;13.10;39.70;;;;;;5003238;28;20185;-91